sensor_id;sensor_type;location;lat;lon;timestamp;pressure;altitude;pressure_sealevel;temperature;humidity
38038;BME280;23843;51.320;12.340;2023-05-19T00:02:05;101324.78;;;12.99;46.51
38038;BME280;23843;51.320;12.340;2023-05-19T00:04:31;101326.41;;;13.02;46.11
38038;BME280;23843;51.320;12.340;2023-05-19T00:06:58;101324.66;;;13.02;46.14
38038;BME280;23843;51.320;12.340;2023-05-19T00:09:24;101325.50;;;13.03;46.24
38038;BME280;23843;51.320;12.340;2023-05-19T00:11:50;101322.13;;;12.99;46.29
38038;BME280;23843;51.320;12.340;2023-05-19T00:14:16;101317.69;;;13.00;46.11
38038;BME280;23843;51.320;12.340;2023-05-19T00:16:42;101312.59;;;12.95;47.08
38038;BME280;23843;51.320;12.340;2023-05-19T00:19:08;101307.38;;;12.92;47.09
38038;BME280;23843;51.320;12.340;2023-05-19T00:21:34;101304.88;;;12.89;47.02
38038;BME280;23843;51.320;12.340;2023-05-19T00:24:01;101303.25;;;12.87;46.83
38038;BME280;23843;51.320;12.340;2023-05-19T00:26:26;101299.66;;;12.88;46.73
38038;BME280;23843;51.320;12.340;2023-05-19T00:28:52;101301.53;;;12.85;46.52
38038;BME280;23843;51.320;12.340;2023-05-19T00:31:18;101304.41;;;12.81;46.84
38038;BME280;23843;51.320;12.340;2023-05-19T00:33:43;101306.28;;;12.79;47.00
38038;BME280;23843;51.320;12.340;2023-05-19T00:36:09;101297.34;;;12.80;47.46
38038;BME280;23843;51.320;12.340;2023-05-19T00:38:36;101298.34;;;12.77;47.55
38038;BME280;23843;51.320;12.340;2023-05-19T00:41:03;101295.91;;;12.73;47.78
38038;BME280;23843;51.320;12.340;2023-05-19T00:43:29;101297.72;;;12.72;47.17
38038;BME280;23843;51.320;12.340;2023-05-19T00:45:55;101296.06;;;12.70;48.03
38038;BME280;23843;51.320;12.340;2023-05-19T00:48:20;101298.94;;;12.65;48.34
38038;BME280;23843;51.320;12.340;2023-05-19T00:50:46;101294.78;;;12.59;47.90
38038;BME280;23843;51.320;12.340;2023-05-19T00:53:13;101288.03;;;12.52;47.59
38038;BME280;23843;51.320;12.340;2023-05-19T00:55:41;101288.91;;;12.53;47.94
38038;BME280;23843;51.320;12.340;2023-05-19T00:58:09;101296.22;;;12.48;49.30
38038;BME280;23843;51.320;12.340;2023-05-19T01:00:35;101292.78;;;12.46;47.96
38038;BME280;23843;51.320;12.340;2023-05-19T01:03:01;101291.97;;;12.43;49.16
38038;BME280;23843;51.320;12.340;2023-05-19T01:05:27;101291.22;;;12.41;49.39
38038;BME280;23843;51.320;12.340;2023-05-19T01:07:52;101287.78;;;12.39;49.27
38038;BME280;23843;51.320;12.340;2023-05-19T01:10:18;101288.69;;;12.38;48.53
38038;BME280;23843;51.320;12.340;2023-05-19T01:12:43;101294.00;;;12.38;49.43
38038;BME280;23843;51.320;12.340;2023-05-19T01:15:11;101293.28;;;12.35;48.77
38038;BME280;23843;51.320;12.340;2023-05-19T01:17:41;101292.66;;;12.30;49.41
38038;BME280;23843;51.320;12.340;2023-05-19T01:20:13;101287.47;;;12.27;49.43
38038;BME280;23843;51.320;12.340;2023-05-19T01:23:11;101289.59;;;12.18;50.62
38038;BME280;23843;51.320;12.340;2023-05-19T01:25:56;101290.63;;;12.16;49.99
38038;BME280;23843;51.320;12.340;2023-05-19T01:28:39;101285.03;;;12.22;49.99
38038;BME280;23843;51.320;12.340;2023-05-19T01:31:11;101290.19;;;12.25;49.97
38038;BME280;23843;51.320;12.340;2023-05-19T01:36:06;101284.25;;;12.20;49.93
38038;BME280;23843;51.320;12.340;2023-05-19T01:38:33;101286.25;;;12.15;50.85
38038;BME280;23843;51.320;12.340;2023-05-19T01:40:59;101290.63;;;12.16;51.21
38038;BME280;23843;51.320;12.340;2023-05-19T01:43:26;101290.72;;;12.14;51.31
38038;BME280;23843;51.320;12.340;2023-05-19T01:45:53;101288.75;;;12.18;50.82
38038;BME280;23843;51.320;12.340;2023-05-19T01:48:20;101289.59;;;12.18;52.15
38038;BME280;23843;51.320;12.340;2023-05-19T01:50:46;101288.75;;;12.18;51.08
38038;BME280;23843;51.320;12.340;2023-05-19T01:53:12;101293.22;;;12.17;51.78
38038;BME280;23843;51.320;12.340;2023-05-19T01:55:42;101292.47;;;12.14;51.91
38038;BME280;23843;51.320;12.340;2023-05-19T01:58:14;101294.28;;;12.13;52.26
38038;BME280;23843;51.320;12.340;2023-05-19T02:00:50;101294.13;;;12.16;51.24
38038;BME280;23843;51.320;12.340;2023-05-19T02:03:31;101296.66;;;12.19;51.53
38038;BME280;23843;51.320;12.340;2023-05-19T02:06:11;101297.53;;;12.20;52.00
38038;BME280;23843;51.320;12.340;2023-05-19T02:08:42;101290.47;;;12.19;52.72
38038;BME280;23843;51.320;12.340;2023-05-19T02:11:13;101287.97;;;12.16;51.80
38038;BME280;23843;51.320;12.340;2023-05-19T02:13:42;101295.13;;;12.14;53.35
38038;BME280;23843;51.320;12.340;2023-05-19T02:16:09;101290.91;;;12.10;52.75
38038;BME280;23843;51.320;12.340;2023-05-19T02:18:39;101283.78;;;12.10;52.78
38038;BME280;23843;51.320;12.340;2023-05-19T02:21:04;101284.16;;;12.03;53.62
38038;BME280;23843;51.320;12.340;2023-05-19T02:23:30;101281.63;;;11.99;53.89
38038;BME280;23843;51.320;12.340;2023-05-19T02:25:55;101280.84;;;11.97;53.77
38038;BME280;23843;51.320;12.340;2023-05-19T02:28:21;101282.63;;;11.97;54.44
38038;BME280;23843;51.320;12.340;2023-05-19T02:30:46;101283.63;;;11.94;54.57
38038;BME280;23843;51.320;12.340;2023-05-19T02:33:12;101284.63;;;11.92;54.76
38038;BME280;23843;51.320;12.340;2023-05-19T02:35:39;101284.81;;;11.87;54.09
38038;BME280;23843;51.320;12.340;2023-05-19T02:38:04;101282.28;;;11.84;54.15
38038;BME280;23843;51.320;12.340;2023-05-19T02:40:29;101285.34;;;11.75;55.07
38038;BME280;23843;51.320;12.340;2023-05-19T02:42:55;101282.97;;;11.69;55.22
38038;BME280;23843;51.320;12.340;2023-05-19T02:45:20;101289.06;;;11.71;55.56
38038;BME280;23843;51.320;12.340;2023-05-19T02:47:46;101285.63;;;11.69;56.36
38038;BME280;23843;51.320;12.340;2023-05-19T02:50:11;101282.03;;;11.70;56.13
38038;BME280;23843;51.320;12.340;2023-05-19T02:52:38;101282.16;;;11.67;56.63
38038;BME280;23843;51.320;12.340;2023-05-19T02:55:04;101283.88;;;11.68;56.12
38038;BME280;23843;51.320;12.340;2023-05-19T02:57:33;101286.41;;;11.71;55.55
38038;BME280;23843;51.320;12.340;2023-05-19T02:59:59;101283.75;;;11.71;55.87
38038;BME280;23843;51.320;12.340;2023-05-19T03:02:24;101277.72;;;11.67;56.39
38038;BME280;23843;51.320;12.340;2023-05-19T03:04:49;101278.56;;;11.68;57.32
38038;BME280;23843;51.320;12.340;2023-05-19T03:07:15;101281.16;;;11.69;57.63
38038;BME280;23843;51.320;12.340;2023-05-19T03:09:42;101276.72;;;11.70;57.76
38038;BME280;23843;51.320;12.340;2023-05-19T03:12:07;101281.22;;;11.68;56.46
38038;BME280;23843;51.320;12.340;2023-05-19T03:14:33;101280.50;;;11.64;56.56
38038;BME280;23843;51.320;12.340;2023-05-19T03:16:58;101285.22;;;11.57;58.39
38038;BME280;23843;51.320;12.340;2023-05-19T03:19:24;101286.34;;;11.52;59.03
38038;BME280;23843;51.320;12.340;2023-05-19T03:21:49;101279.25;;;11.52;57.84
38038;BME280;23843;51.320;12.340;2023-05-19T03:24:15;101279.38;;;11.49;57.33
38038;BME280;23843;51.320;12.340;2023-05-19T03:26:42;101284.75;;;11.48;57.91
38038;BME280;23843;51.320;12.340;2023-05-19T03:29:07;101288.34;;;11.47;58.66
38038;BME280;23843;51.320;12.340;2023-05-19T03:31:33;101290.19;;;11.45;58.60
38038;BME280;23843;51.320;12.340;2023-05-19T03:33:58;101288.41;;;11.45;57.93
38038;BME280;23843;51.320;12.340;2023-05-19T03:36:23;101285.81;;;11.44;60.24
38038;BME280;23843;51.320;12.340;2023-05-19T03:38:49;101293.22;;;11.35;61.49
38038;BME280;23843;51.320;12.340;2023-05-19T03:41:14;101288.91;;;11.33;60.47
38038;BME280;23843;51.320;12.340;2023-05-19T03:43:41;101287.88;;;11.37;60.86
38038;BME280;23843;51.320;12.340;2023-05-19T03:46:07;101289.53;;;11.40;60.55
38038;BME280;23843;51.320;12.340;2023-05-19T03:48:32;101285.06;;;11.40;60.51
38038;BME280;23843;51.320;12.340;2023-05-19T03:50:58;101291.38;;;11.38;60.63
38038;BME280;23843;51.320;12.340;2023-05-19T03:53:23;101295.03;;;11.35;61.46
38038;BME280;23843;51.320;12.340;2023-05-19T03:55:48;101297.72;;;11.33;61.72
38038;BME280;23843;51.320;12.340;2023-05-19T03:58:14;101299.53;;;11.33;60.49
38038;BME280;23843;51.320;12.340;2023-05-19T04:00:41;101289.06;;;11.30;60.35
38038;BME280;23843;51.320;12.340;2023-05-19T04:03:06;101290.09;;;11.26;62.72
38038;BME280;23843;51.320;12.340;2023-05-19T04:05:32;101294.56;;;11.25;62.78
38038;BME280;23843;51.320;12.340;2023-05-19T04:07:57;101297.06;;;11.28;62.85
38038;BME280;23843;51.320;12.340;2023-05-19T04:10:23;101292.75;;;11.26;63.07
38038;BME280;23843;51.320;12.340;2023-05-19T04:12:48;101300.19;;;11.18;65.34
38038;BME280;23843;51.320;12.340;2023-05-19T04:15:14;101293.75;;;11.23;63.31
38038;BME280;23843;51.320;12.340;2023-05-19T04:17:41;101297.22;;;11.25;64.50
38038;BME280;23843;51.320;12.340;2023-05-19T04:20:07;101303.38;;;11.26;63.11
38038;BME280;23843;51.320;12.340;2023-05-19T04:22:33;101298.81;;;11.29;65.33
38038;BME280;23843;51.320;12.340;2023-05-19T04:24:58;101297.91;;;11.29;64.40
38038;BME280;23843;51.320;12.340;2023-05-19T04:27:24;101297.81;;;11.32;64.96
38038;BME280;23843;51.320;12.340;2023-05-19T04:29:49;101297.69;;;11.35;65.21
38038;BME280;23843;51.320;12.340;2023-05-19T04:32:15;101297.69;;;11.35;65.30
38038;BME280;23843;51.320;12.340;2023-05-19T04:34:42;101297.50;;;11.40;64.09
38038;BME280;23843;51.320;12.340;2023-05-19T04:37:07;101300.81;;;11.45;64.78
38038;BME280;23843;51.320;12.340;2023-05-19T04:39:33;101300.81;;;11.45;63.36
38038;BME280;23843;51.320;12.340;2023-05-19T04:41:58;101305.91;;;11.49;64.28
38038;BME280;23843;51.320;12.340;2023-05-19T04:44:24;101299.88;;;11.46;66.46
38038;BME280;23843;51.320;12.340;2023-05-19T04:46:49;101304.31;;;11.45;65.78
38038;BME280;23843;51.320;12.340;2023-05-19T04:49:15;101304.31;;;11.45;65.83
38038;BME280;23843;51.320;12.340;2023-05-19T04:51:42;101305.06;;;11.49;66.38
38038;BME280;23843;51.320;12.340;2023-05-19T04:54:07;101302.31;;;11.50;64.59
38038;BME280;23843;51.320;12.340;2023-05-19T04:56:33;101314.53;;;11.54;65.25
38038;BME280;23843;51.320;12.340;2023-05-19T04:58:58;101301.88;;;11.61;64.06
38038;BME280;23843;51.320;12.340;2023-05-19T05:01:23;101302.34;;;11.71;65.33
38038;BME280;23843;51.320;12.340;2023-05-19T05:03:49;101306.72;;;11.72;65.97
38038;BME280;23843;51.320;12.340;2023-05-19T05:06:14;101302.00;;;11.78;64.52
38038;BME280;23843;51.320;12.340;2023-05-19T05:08:41;101306.81;;;11.91;63.38
38038;BME280;23843;51.320;12.340;2023-05-19T05:11:07;101301.94;;;12.01;63.67
38038;BME280;23843;51.320;12.340;2023-05-19T05:13:33;101306.84;;;12.10;63.35
38038;BME280;23843;51.320;12.340;2023-05-19T05:15:59;101306.34;;;12.20;65.47
38038;BME280;23843;51.320;12.340;2023-05-19T05:18:25;101307.84;;;12.26;64.40
38038;BME280;23843;51.320;12.340;2023-05-19T05:20:51;101297.66;;;12.36;62.97
38038;BME280;23843;51.320;12.340;2023-05-19T05:23:17;101308.88;;;12.42;63.30
38038;BME280;23843;51.320;12.340;2023-05-19T05:25:45;101301.63;;;12.46;62.39
38038;BME280;23843;51.320;12.340;2023-05-19T05:28:11;101304.06;;;12.51;63.63
38038;BME280;23843;51.320;12.340;2023-05-19T05:30:37;101306.13;;;12.63;64.00
38038;BME280;23843;51.320;12.340;2023-05-19T05:33:02;101302.13;;;12.73;63.10
38038;BME280;23843;51.320;12.340;2023-05-19T05:35:28;101305.03;;;12.86;61.38
38038;BME280;23843;51.320;12.340;2023-05-19T05:37:53;101311.69;;;12.95;61.63
38038;BME280;23843;51.320;12.340;2023-05-19T05:40:19;101315.16;;;12.97;61.94
38038;BME280;23843;51.320;12.340;2023-05-19T05:42:46;101320.81;;;13.08;61.56
38038;BME280;23843;51.320;12.340;2023-05-19T05:45:11;101316.28;;;13.10;61.55
38038;BME280;23843;51.320;12.340;2023-05-19T05:47:37;101305.41;;;13.15;59.84
38038;BME280;23843;51.320;12.340;2023-05-19T05:50:04;101308.34;;;13.27;61.13
38038;BME280;23843;51.320;12.340;2023-05-19T05:52:31;101304.63;;;13.49;61.57
38038;BME280;23843;51.320;12.340;2023-05-19T05:54:57;101301.97;;;13.82;60.12
38038;BME280;23843;51.320;12.340;2023-05-19T05:57:23;101309.38;;;14.10;58.50
38038;BME280;23843;51.320;12.340;2023-05-19T05:59:50;101309.69;;;14.38;58.53
38038;BME280;23843;51.320;12.340;2023-05-19T06:02:15;101308.97;;;14.67;56.58
38038;BME280;23843;51.320;12.340;2023-05-19T06:04:41;101305.78;;;14.92;55.49
38038;BME280;23843;51.320;12.340;2023-05-19T06:07:06;101317.38;;;15.68;55.05
38038;BME280;23843;51.320;12.340;2023-05-19T06:09:32;101300.34;;;16.56;52.12
38038;BME280;23843;51.320;12.340;2023-05-19T06:11:57;101308.47;;;16.96;50.68
38038;BME280;23843;51.320;12.340;2023-05-19T06:14:23;101313.09;;;17.87;49.21
38038;BME280;23843;51.320;12.340;2023-05-19T06:16:50;101316.97;;;17.95;45.80
38038;BME280;23843;51.320;12.340;2023-05-19T06:19:15;101314.50;;;17.92;46.14
38038;BME280;23843;51.320;12.340;2023-05-19T06:21:41;101315.16;;;17.96;45.40
38038;BME280;23843;51.320;12.340;2023-05-19T06:24:06;101318.34;;;18.14;45.14
38038;BME280;23843;51.320;12.340;2023-05-19T06:26:31;101319.91;;;18.55;45.61
38038;BME280;23843;51.320;12.340;2023-05-19T06:28:57;101315.47;;;18.79;44.53
38038;BME280;23843;51.320;12.340;2023-05-19T06:31:22;101312.03;;;18.77;42.58
38038;BME280;23843;51.320;12.340;2023-05-19T06:33:49;101314.09;;;19.46;42.48
38038;BME280;23843;51.320;12.340;2023-05-19T06:36:15;101313.97;;;20.28;40.81
38038;BME280;23843;51.320;12.340;2023-05-19T06:38:40;101314.69;;;20.75;40.08
38038;BME280;23843;51.320;12.340;2023-05-19T06:41:06;101316.63;;;21.28;38.46
38038;BME280;23843;51.320;12.340;2023-05-19T06:43:31;101314.81;;;22.43;39.11
38038;BME280;23843;51.320;12.340;2023-05-19T06:45:57;101315.19;;;22.69;35.68
38038;BME280;23843;51.320;12.340;2023-05-19T06:48:22;101323.44;;;22.77;36.00
38038;BME280;23843;51.320;12.340;2023-05-19T06:50:49;101324.34;;;22.47;36.35
38038;BME280;23843;51.320;12.340;2023-05-19T06:53:15;101317.72;;;22.20;38.35
38038;BME280;23843;51.320;12.340;2023-05-19T06:55:41;101320.56;;;21.98;37.69
38038;BME280;23843;51.320;12.340;2023-05-19T06:58:06;101325.94;;;22.50;35.22
38038;BME280;23843;51.320;12.340;2023-05-19T07:00:32;101324.59;;;22.94;33.90
38038;BME280;23843;51.320;12.340;2023-05-19T07:02:57;101322.25;;;23.40;34.22
38038;BME280;23843;51.320;12.340;2023-05-19T07:05:22;101308.69;;;23.69;33.34
38038;BME280;23843;51.320;12.340;2023-05-19T07:07:49;101311.56;;;24.24;33.72
38038;BME280;23843;51.320;12.340;2023-05-19T07:10:15;101304.47;;;24.96;31.15
38038;BME280;23843;51.320;12.340;2023-05-19T07:12:41;101299.75;;;25.16;30.62
38038;BME280;23843;51.320;12.340;2023-05-19T07:15:06;101302.56;;;25.42;31.72
38038;BME280;23843;51.320;12.340;2023-05-19T07:17:32;101295.69;;;25.30;29.94
38038;BME280;23843;51.320;12.340;2023-05-19T07:19:57;101291.75;;;24.97;33.97
38038;BME280;23843;51.320;12.340;2023-05-19T07:22:23;101286.66;;;25.48;32.62
38038;BME280;23843;51.320;12.340;2023-05-19T07:24:50;101288.41;;;26.01;31.43
38038;BME280;23843;51.320;12.340;2023-05-19T07:27:15;101279.81;;;27.07;30.23
38038;BME280;23843;51.320;12.340;2023-05-19T07:29:40;101280.19;;;27.37;29.41
38038;BME280;23843;51.320;12.340;2023-05-19T07:32:06;101283.88;;;27.03;29.85
38038;BME280;23843;51.320;12.340;2023-05-19T07:34:31;101281.38;;;27.34;28.97
38038;BME280;23843;51.320;12.340;2023-05-19T07:36:57;101278.75;;;26.83;30.47
38038;BME280;23843;51.320;12.340;2023-05-19T07:39:22;101278.44;;;26.44;28.74
38038;BME280;23843;51.320;12.340;2023-05-19T07:41:49;101282.94;;;26.27;29.19
38038;BME280;23843;51.320;12.340;2023-05-19T07:44:15;101283.13;;;26.76;28.33
38038;BME280;23843;51.320;12.340;2023-05-19T07:46:40;101283.22;;;27.66;28.14
38038;BME280;23843;51.320;12.340;2023-05-19T07:49:05;101281.34;;;27.67;25.37
38038;BME280;23843;51.320;12.340;2023-05-19T07:51:31;101269.41;;;26.86;27.02
38038;BME280;23843;51.320;12.340;2023-05-19T07:53:56;101272.25;;;25.91;27.95
38038;BME280;23843;51.320;12.340;2023-05-19T07:56:22;101271.09;;;25.76;27.32
38038;BME280;23843;51.320;12.340;2023-05-19T07:58:49;101273.41;;;26.23;27.61
38038;BME280;23843;51.320;12.340;2023-05-19T08:01:14;101272.00;;;27.45;26.78
38038;BME280;23843;51.320;12.340;2023-05-19T08:03:39;101271.84;;;28.27;25.73
38038;BME280;23843;51.320;12.340;2023-05-19T08:06:05;101255.75;;;29.63;22.92
38038;BME280;23843;51.320;12.340;2023-05-19T08:08:30;101283.50;;;30.05;24.73
38038;BME280;23843;51.320;12.340;2023-05-19T08:10:56;101268.63;;;29.55;25.04
38038;BME280;23843;51.320;12.340;2023-05-19T08:13:21;101276.16;;;28.84;21.98
38038;BME280;23843;51.320;12.340;2023-05-19T08:15:48;101273.28;;;28.54;23.04
38038;BME280;23843;51.320;12.340;2023-05-19T08:18:13;101263.16;;;27.51;25.26
38038;BME280;23843;51.320;12.340;2023-05-19T08:20:39;101284.13;;;26.67;27.17
38038;BME280;23843;51.320;12.340;2023-05-19T08:23:04;101262.81;;;27.54;26.96
38038;BME280;23843;51.320;12.340;2023-05-19T08:25:30;101263.97;;;27.84;25.69
38038;BME280;23843;51.320;12.340;2023-05-19T08:27:55;101279.13;;;27.62;24.81
38038;BME280;23843;51.320;12.340;2023-05-19T08:30:21;101270.81;;;27.47;25.49
38038;BME280;23843;51.320;12.340;2023-05-19T08:32:48;101269.00;;;26.73;24.49
38038;BME280;23843;51.320;12.340;2023-05-19T08:35:13;101263.47;;;25.97;26.18
38038;BME280;23843;51.320;12.340;2023-05-19T08:37:38;101265.63;;;24.88;28.22
38038;BME280;23843;51.320;12.340;2023-05-19T08:40:05;101259.44;;;25.31;27.83
38038;BME280;23843;51.320;12.340;2023-05-19T08:42:31;101256.34;;;26.39;27.28
38038;BME280;23843;51.320;12.340;2023-05-19T08:44:57;101248.19;;;27.63;24.81
38038;BME280;23843;51.320;12.340;2023-05-19T08:47:22;101252.47;;;28.53;24.80
38038;BME280;23843;51.320;12.340;2023-05-19T08:49:51;101253.72;;;28.03;23.11
38038;BME280;23843;51.320;12.340;2023-05-19T08:52:26;101251.38;;;28.31;23.94
38038;BME280;23843;51.320;12.340;2023-05-19T08:54:56;101254.28;;;26.92;24.10
38038;BME280;23843;51.320;12.340;2023-05-19T08:57:25;101244.09;;;25.92;24.76
38038;BME280;23843;51.320;12.340;2023-05-19T08:59:51;101254.72;;;25.59;26.70
38038;BME280;23843;51.320;12.340;2023-05-19T09:02:18;101246.78;;;24.86;26.31
38038;BME280;23843;51.320;12.340;2023-05-19T09:04:46;101248.59;;;24.50;27.53
38038;BME280;23843;51.320;12.340;2023-05-19T09:07:13;101245.66;;;24.06;27.60
38038;BME280;23843;51.320;12.340;2023-05-19T09:09:39;101245.34;;;24.09;27.14
38038;BME280;23843;51.320;12.340;2023-05-19T09:12:05;101230.69;;;23.74;27.46
38038;BME280;23843;51.320;12.340;2023-05-19T09:14:31;101220.72;;;23.65;28.04
38038;BME280;23843;51.320;12.340;2023-05-19T09:16:57;101227.97;;;23.64;28.52
38038;BME280;23843;51.320;12.340;2023-05-19T09:19:27;101221.97;;;23.90;28.58
38038;BME280;23843;51.320;12.340;2023-05-19T09:21:57;101224.44;;;24.39;28.11
38038;BME280;23843;51.320;12.340;2023-05-19T09:24:24;101219.97;;;24.65;28.01
38038;BME280;23843;51.320;12.340;2023-05-19T09:26:50;101225.03;;;24.78;27.45
38038;BME280;23843;51.320;12.340;2023-05-19T09:29:16;101214.44;;;24.39;27.89
38038;BME280;23843;51.320;12.340;2023-05-19T09:31:47;101223.22;;;23.96;27.54
38038;BME280;23843;51.320;12.340;2023-05-19T09:34:12;101226.63;;;23.12;28.41
38038;BME280;23843;51.320;12.340;2023-05-19T09:36:38;101219.06;;;22.47;29.13
38038;BME280;23843;51.320;12.340;2023-05-19T09:39:12;101225.41;;;21.96;29.83
38038;BME280;23843;51.320;12.340;2023-05-19T09:41:38;101217.66;;;21.51;30.51
38038;BME280;23843;51.320;12.340;2023-05-19T09:44:04;101215.94;;;21.50;30.51
38038;BME280;23843;51.320;12.340;2023-05-19T09:46:29;101209.69;;;21.49;31.04
38038;BME280;23843;51.320;12.340;2023-05-19T09:48:56;101211.66;;;21.68;30.44
38038;BME280;23843;51.320;12.340;2023-05-19T09:51:21;101214.41;;;21.57;31.45
38038;BME280;23843;51.320;12.340;2023-05-19T09:53:48;101229.81;;;21.66;31.21
38038;BME280;23843;51.320;12.340;2023-05-19T09:56:13;101215.03;;;21.40;31.01
38038;BME280;23843;51.320;12.340;2023-05-19T09:58:41;101212.38;;;21.07;31.66
38038;BME280;23843;51.320;12.340;2023-05-19T10:01:07;101217.41;;;21.01;31.29
38038;BME280;23843;51.320;12.340;2023-05-19T10:03:33;101215.50;;;20.59;32.43
38038;BME280;23843;51.320;12.340;2023-05-19T10:05:59;101203.06;;;20.24;33.00
38038;BME280;23843;51.320;12.340;2023-05-19T10:08:25;101211.88;;;20.15;32.73
38038;BME280;23843;51.320;12.340;2023-05-19T10:10:52;101204.06;;;20.01;33.52
38038;BME280;23843;51.320;12.340;2023-05-19T10:13:18;101212.38;;;19.86;33.12
38038;BME280;23843;51.320;12.340;2023-05-19T10:15:48;101204.69;;;19.71;33.45
38038;BME280;23843;51.320;12.340;2023-05-19T10:18:16;101203.09;;;19.68;33.84
38038;BME280;23843;51.320;12.340;2023-05-19T10:20:42;101206.88;;;19.65;33.30
38038;BME280;23843;51.320;12.340;2023-05-19T10:23:08;101204.72;;;19.35;33.77
38038;BME280;23843;51.320;12.340;2023-05-19T10:25:34;101210.47;;;18.95;35.07
38038;BME280;23843;51.320;12.340;2023-05-19T10:28:04;101196.38;;;18.80;34.72
38038;BME280;23843;51.320;12.340;2023-05-19T10:30:33;101201.41;;;18.85;35.66
38038;BME280;23843;51.320;12.340;2023-05-19T10:33:02;101203.47;;;18.81;35.77
38038;BME280;23843;51.320;12.340;2023-05-19T10:35:53;101191.97;;;18.79;34.97
38038;BME280;23843;51.320;12.340;2023-05-19T10:38:30;101185.16;;;18.87;34.91
38038;BME280;23843;51.320;12.340;2023-05-19T10:41:03;101195.31;;;18.94;35.17
38038;BME280;23843;51.320;12.340;2023-05-19T10:43:43;101195.16;;;18.85;36.83
38038;BME280;23843;51.320;12.340;2023-05-19T10:46:10;101185.47;;;18.95;36.23
38038;BME280;23843;51.320;12.340;2023-05-19T10:48:43;101208.69;;;19.07;36.39
38038;BME280;23843;51.320;12.340;2023-05-19T10:51:09;101180.84;;;19.08;36.59
38038;BME280;23843;51.320;12.340;2023-05-19T10:53:39;101177.94;;;19.11;36.43
38038;BME280;23843;51.320;12.340;2023-05-19T10:56:05;101180.66;;;19.22;35.58
38038;BME280;23843;51.320;12.340;2023-05-19T10:58:38;101191.69;;;19.53;35.29
38038;BME280;23843;51.320;12.340;2023-05-19T11:01:06;101188.78;;;19.67;35.03
38038;BME280;23843;51.320;12.340;2023-05-19T11:03:44;101188.69;;;19.80;35.52
38038;BME280;23843;51.320;12.340;2023-05-19T11:06:20;101179.50;;;19.94;34.59
38038;BME280;23843;51.320;12.340;2023-05-19T11:08:52;101182.91;;;19.96;35.04
38038;BME280;23843;51.320;12.340;2023-05-19T11:11:18;101174.25;;;19.81;35.36
38038;BME280;23843;51.320;12.340;2023-05-19T11:13:46;101176.06;;;19.92;36.00
38038;BME280;23843;51.320;12.340;2023-05-19T11:16:12;101167.88;;;19.82;35.90
38038;BME280;23843;51.320;12.340;2023-05-19T11:18:37;101169.94;;;19.56;35.56
38038;BME280;23843;51.320;12.340;2023-05-19T11:21:04;101164.44;;;19.58;36.33
38038;BME280;23843;51.320;12.340;2023-05-19T11:23:32;101148.22;;;19.82;36.34
38038;BME280;23843;51.320;12.340;2023-05-19T11:26:00;101152.75;;;19.93;36.38
38038;BME280;23843;51.320;12.340;2023-05-19T11:28:26;101161.38;;;20.19;36.57
38038;BME280;23843;51.320;12.340;2023-05-19T11:30:53;101167.25;;;20.13;36.71
38038;BME280;23843;51.320;12.340;2023-05-19T11:33:20;101163.88;;;19.88;36.61
38038;BME280;23843;51.320;12.340;2023-05-19T11:35:46;101153.09;;;19.77;37.06
38038;BME280;23843;51.320;12.340;2023-05-19T11:38:13;101155.44;;;19.81;37.18
38038;BME280;23843;51.320;12.340;2023-05-19T11:40:40;101153.56;;;20.04;37.44
38038;BME280;23843;51.320;12.340;2023-05-19T11:43:06;101153.91;;;20.22;36.71
38038;BME280;23843;51.320;12.340;2023-05-19T11:45:31;101143.31;;;20.09;36.22
38038;BME280;23843;51.320;12.340;2023-05-19T11:47:57;101128.28;;;20.07;37.24
38038;BME280;23843;51.320;12.340;2023-05-19T11:50:23;101131.06;;;20.17;37.46
38038;BME280;23843;51.320;12.340;2023-05-19T11:52:49;101150.03;;;20.04;37.71
38038;BME280;23843;51.320;12.340;2023-05-19T11:55:16;101139.31;;;19.93;37.71
38038;BME280;23843;51.320;12.340;2023-05-19T11:57:50;101138.94;;;19.97;37.19
38038;BME280;23843;51.320;12.340;2023-05-19T12:00:15;101145.00;;;19.99;37.48
38038;BME280;23843;51.320;12.340;2023-05-19T12:02:41;101165.19;;;19.94;36.18
38038;BME280;23843;51.320;12.340;2023-05-19T12:05:17;101135.03;;;19.67;36.22
38038;BME280;23843;51.320;12.340;2023-05-19T12:07:46;101132.19;;;19.58;37.04
38038;BME280;23843;51.320;12.340;2023-05-19T12:10:12;101128.16;;;19.63;36.76
38038;BME280;23843;51.320;12.340;2023-05-19T12:12:39;101127.81;;;19.57;36.70
38038;BME280;23843;51.320;12.340;2023-05-19T12:15:05;101130.59;;;19.55;36.15
38038;BME280;23843;51.320;12.340;2023-05-19T12:17:32;101108.00;;;19.35;36.72
38038;BME280;23843;51.320;12.340;2023-05-19T12:19:58;101105.06;;;19.50;35.88
38038;BME280;23843;51.320;12.340;2023-05-19T12:22:24;101102.25;;;19.40;35.60
38038;BME280;23843;51.320;12.340;2023-05-19T12:24:49;101108.84;;;19.36;36.93
38038;BME280;23843;51.320;12.340;2023-05-19T12:27:16;101106.06;;;19.37;37.56
38038;BME280;23843;51.320;12.340;2023-05-19T12:29:48;101103.47;;;19.36;37.75
38038;BME280;23843;51.320;12.340;2023-05-19T12:32:14;101115.09;;;19.36;37.97
38038;BME280;23843;51.320;12.340;2023-05-19T12:34:40;101118.00;;;19.33;38.27
38038;BME280;23843;51.320;12.340;2023-05-19T12:37:06;101122.88;;;19.28;36.79
38038;BME280;23843;51.320;12.340;2023-05-19T12:39:31;101114.34;;;19.23;37.04
38038;BME280;23843;51.320;12.340;2023-05-19T12:42:01;101107.50;;;19.30;37.43